Pagrindinis puslapis
METAR-TAF:

METAR-TAF

Oro uostai :

Chitose, Japonija

platuma: 42-48N, ilguma: 141-40E, Aukštis: 27 m

Dabartinis oras

Ataskaita buvo paskelbta 37 minutes, ne 10:30 UTC
Vėjas 8 kt iš Pietų
Temperatūra 5°C
Drėgmė 75%
Slėgis 1020 hPa
Matomumas 10 km arba daugiau
Mažai debesys ne aukštis 1000 ft
Su prošvaistėmis ne aukštis 1400 ft
Su prošvaistėmis

METAR: RJCC 311030Z 18008KT 9999 FEW010 BKN014 BKN/// 05/01 Q1020

Laikas: 20:07 (11:07 UTC)

Prognozė

Ataskaita buvo paskelbta 6 valandos ir 2 minutes, ne 05:05 UTC
Prognozė galioja nuo 31 metu 06 UTC su 01 metu 12 UTC
Vėjas 17 kt iš Pietų
Matomumas 10 km arba daugiau
Mažai debesys ne aukštis 2000 ft
Tapsmas
nuo 01 metu 06 UTC su 01 metu 09 UTC
Vėjas 18 kt iš Šiaurės

TAF: RJCC 310505Z 3106/0112 17017KT 9999 FEW020 BECMG 0106/0109 35018KT

Orai ataskaitas ir orų prognozės (METAR, TAF).

turimą stotys yra geltonos ir raudonos taškus žemėlapyje.

Perkelti pele per norėdami pamatyti stoties vardą.

Tada spustelėkite, norėdami matyti oro stebėjimo ir prognozės.

Norėdami pakeisti žemėlapį: spustelėkite ant žalios mygtukų su juodo kryžiaus žemyn,; žalią mygtuką su brūkšneliu, jei norite nutolinti; arba žalių rodyklių gretimoms žemėlapius.


METAR-TAF: